Aérodrome :
LOGIN :

S'inscrire | Disclaimer

   EN    FR    IT 

 










Légende :    VFR   VFR Marginal   IFR   IFR Intensif   IFR Très Intensif
Visi : 
Plafond : 
>= 8 km
>= 3000ft
5 à 8 km
1000 à 3000 ft
1500m à 5 km
500 à 1000 ft
800 à 1500m
200 à 500 ft
< 800m
< 200 ft
Symboles :   Orages  Brouillard  Fortes neiges  Fortes précipitations  Vent > 20 kt
SIGMETs :   Divers  Orages  Givrage  Turbulence  Onde Orograph.  Cendres Volcan.







- Altitude de l'aérodrome : 30 ft
- Code IATA : CFN


EIDL - Donegal

DERNIER METAR :
  • 270800Z VRB02KT CAVOK 07/04 Q1010

METARs EXPIRÉS :
  • 270730Z 14003KT CAVOK 06/03 Q1010
  • 270700Z 12004KT CAVOK 05/03 Q1010
  • 270630Z 15003KT 9999 FEW040 05/03 Q1009

TAF COR TAF EIDL
Valide du 27 à 06h jusqu'au 27 à 15h UTC


270506Z 2706/2715 VRB03KT 9999 FEW020 SCT030
BECMG 2707/2709 32007KT
TEMPO 2707/2715 -SHRA SCT018CB
BECMG 2709/2712 35010KT
PROB30
TEMPO 2710/2715 5000 SHRA SCT012
Pas de NOTAMs connus pour ce terrain.



MET'MAP, la Météo Aéronautique d'un coup d'oeil ! - Copyright ORBIFLY Décembre 2007 - Disclaimer

ORBIFLY MET'MAP TEAM :

Programmation & Développement : Alexandra Zaïnal
Conception & Développement : Baudouin d'Aumeries
Co-Programmation & Développement : Marc-Olivier Méhu
Soutien technique & logistique : Manuel Goepfert

Contact : metmap@orbifly.com




SOURCES & CREDITS :

   NOAA